Time;durP1;ratioP1;P1;durP2;ratioP2;P2;SDS_P1;SDS_P2;PMS_P1;PMS_P2;Temp;Humidity;BMP_temperature;BMP_pressure;BME280_temperature;BME280_humidity;BME280_pressure;Samples;Min_cycle;Max_cycle;Signal;HPM_P1;HPM_P2
2021/08/07 00:00:42;;;;;;;15.07;7.22;;;;;;;;;;4950986;29;20090;-82
2021/08/07 00:03:11;;;;;;;13.48;7.03;;;;;;;;;;4943978;29;20560;-82
2021/08/07 00:05:38;;;;;;;12.07;7.45;;;;;;;;;;4949346;29;20122;-82
2021/08/07 00:08:06;;;;;;;15.70;6.63;;;;;;;;;;4934926;29;20150;-82
2021/08/07 00:10:33;;;;;;;14.52;7.40;;;;;;;;;;4943849;29;20071;-87
2021/08/07 00:13:00;;;;;;;14.95;7.32;;;;;;;;;;4952121;28;20075;-88
2021/08/07 00:15:28;;;;;;;16.02;7.35;;;;;;;;;;4935352;29;20055;-87
2021/08/07 00:17:55;;;;;;;12.95;7.60;;;;;;;;;;4941005;28;20130;-86
2021/08/07 00:20:23;;;;;;;13.68;7.03;;;;;;;;;;4941231;28;20107;-87
2021/08/07 00:22:50;;;;;;;15.07;7.30;;;;;;;;;;4937635;29;20071;-87
2021/08/07 00:25:18;;;;;;;14.30;7.70;;;;;;;;;;4937400;29;20052;-86
2021/08/07 00:27:45;;;;;;;19.30;7.32;;;;;;;;;;4931837;29;20044;-86
2021/08/07 00:30:13;;;;;;;17.83;8.05;;;;;;;;;;4938701;29;20143;-85
2021/08/07 00:32:43;;;;;;;14.10;8.35;;;;;;;;;;4931410;29;20122;-87
2021/08/07 00:35:15;;;;;;;14.90;7.80;;;;;;;;;;4946778;29;20056;-86
2021/08/07 00:37:51;;;;;;;15.60;7.35;;;;;;;;;;4950526;29;20138;-87
2021/08/07 00:40:18;;;;;;;15.52;7.82;;;;;;;;;;4955184;29;20046;-86
2021/08/07 00:42:46;;;;;;;15.75;8.43;;;;;;;;;;4950724;29;20044;-87
2021/08/07 00:45:13;;;;;;;12.40;7.47;;;;;;;;;;4944584;29;20050;-86
2021/08/07 00:47:40;;;;;;;17.58;8.93;;;;;;;;;;4954807;29;20133;-87
2021/08/07 00:50:08;;;;;;;23.75;8.52;;;;;;;;;;4944765;29;20099;-90
2021/08/07 00:52:36;;;;;;;19.27;8.70;;;;;;;;;;4947122;29;20137;-89
2021/08/07 00:55:04;;;;;;;19.05;8.18;;;;;;;;;;4940034;29;20058;-88
2021/08/07 00:57:31;;;;;;;20.45;9.57;;;;;;;;;;4954721;29;20433;-88
2021/08/07 00:59:58;;;;;;;20.35;8.85;;;;;;;;;;4955184;29;20497;-87
2021/08/07 01:02:27;;;;;;;19.13;9.18;;;;;;;;;;4938297;28;20071;-87
2021/08/07 01:04:55;;;;;;;14.88;8.32;;;;;;;;;;4941335;29;20543;-87
2021/08/07 01:07:37;;;;;;;23.20;9.43;;;;;;;;;;4952661;28;20134;-87
2021/08/07 01:10:11;;;;;;;21.20;9.50;;;;;;;;;;4953869;29;20098;-87
2021/08/07 01:12:41;;;;;;;15.95;8.23;;;;;;;;;;4953831;29;20051;-87
2021/08/07 01:15:13;;;;;;;16.75;9.07;;;;;;;;;;4940639;29;20102;-87
2021/08/07 01:17:42;;;;;;;14.48;8.07;;;;;;;;;;4941717;29;20074;-87
2021/08/07 01:20:27;;;;;;;17.42;8.50;;;;;;;;;;4949019;29;20579;-87
2021/08/07 01:23:01;;;;;;;18.80;10.20;;;;;;;;;;4939153;29;20664;-86
2021/08/07 01:25:40;;;;;;;19.13;10.77;;;;;;;;;;4935587;29;20054;-86
2021/08/07 01:28:07;;;;;;;20.55;10.63;;;;;;;;;;4943493;28;20051;-86
2021/08/07 01:30:35;;;;;;;25.48;10.13;;;;;;;;;;4946595;28;20126;-87
2021/08/07 01:33:07;;;;;;;20.15;10.27;;;;;;;;;;4954221;29;20678;-87
2021/08/07 01:35:34;;;;;;;18.77;10.73;;;;;;;;;;4937150;29;20059;-87
2021/08/07 01:38:02;;;;;;;24.65;11.15;;;;;;;;;;4937006;29;20219;-86
2021/08/07 01:40:29;;;;;;;23.73;11.77;;;;;;;;;;4954303;29;20141;-87
2021/08/07 01:42:56;;;;;;;29.52;12.27;;;;;;;;;;4936778;29;20065;-87
2021/08/07 01:45:25;;;;;;;22.20;12.75;;;;;;;;;;4940754;29;20465;-86
2021/08/07 01:48:12;;;;;;;22.15;12.45;;;;;;;;;;4954067;28;20134;-87
2021/08/07 01:50:44;;;;;;;26.73;13.27;;;;;;;;;;4939397;29;20146;-87
2021/08/07 01:53:14;;;;;;;21.13;12.27;;;;;;;;;;4933425;29;20059;-87
2021/08/07 01:55:48;;;;;;;23.23;12.10;;;;;;;;;;4950421;28;20503;-87
2021/08/07 01:58:20;;;;;;;28.00;13.52;;;;;;;;;;4944050;29;20134;-87
2021/08/07 02:00:47;;;;;;;23.17;12.45;;;;;;;;;;4943753;29;20460;-86
2021/08/07 02:03:15;;;;;;;43.83;14.45;;;;;;;;;;4935960;29;20047;-87
2021/08/07 02:05:44;;;;;;;32.40;14.63;;;;;;;;;;4934712;29;20052;-87
2021/08/07 02:08:11;;;;;;;30.52;14.43;;;;;;;;;;4949087;29;20065;-88
2021/08/07 02:10:41;;;;;;;32.53;13.88;;;;;;;;;;4932377;29;20212;-87
2021/08/07 02:13:09;;;;;;;24.58;13.30;;;;;;;;;;4939694;29;20051;-82
2021/08/07 02:15:36;;;;;;;29.73;13.55;;;;;;;;;;4951558;29;20070;-82
2021/08/07 02:18:04;;;;;;;29.05;14.10;;;;;;;;;;4936080;29;20094;-82
2021/08/07 02:20:32;;;;;;;26.73;14.40;;;;;;;;;;4947625;29;20130;-82
2021/08/07 02:22:59;;;;;;;29.58;13.00;;;;;;;;;;4943764;29;20702;-81
2021/08/07 02:25:26;;;;;;;28.83;14.75;;;;;;;;;;4923943;29;20062;-82
2021/08/07 02:27:53;;;;;;;31.38;14.60;;;;;;;;;;4942430;29;20080;-82
2021/08/07 02:30:20;;;;;;;30.75;16.08;;;;;;;;;;4935487;29;20522;-81
2021/08/07 02:32:48;;;;;;;30.15;14.60;;;;;;;;;;4945680;29;20134;-81
2021/08/07 02:35:17;;;;;;;26.90;11.68;;;;;;;;;;4950327;29;20086;-82
2021/08/07 02:37:44;;;;;;;25.88;10.93;;;;;;;;;;4939557;29;20142;-81
2021/08/07 02:40:13;;;;;;;21.40;10.68;;;;;;;;;;4948608;29;20166;-81
2021/08/07 02:42:40;;;;;;;19.75;10.50;;;;;;;;;;4929592;29;20111;-82
2021/08/07 02:45:08;;;;;;;19.40;10.02;;;;;;;;;;4941511;29;20109;-82
2021/08/07 02:47:35;;;;;;;24.13;10.57;;;;;;;;;;4948065;28;20740;-82
2021/08/07 02:50:04;;;;;;;17.40;9.77;;;;;;;;;;4931019;29;20587;-82
2021/08/07 02:52:31;;;;;;;27.27;10.13;;;;;;;;;;4939116;28;20088;-82
2021/08/07 02:54:59;;;;;;;23.00;10.88;;;;;;;;;;4930483;29;20051;-81
2021/08/07 02:57:26;;;;;;;19.00;10.95;;;;;;;;;;4948069;29;20091;-81
2021/08/07 02:59:53;;;;;;;21.75;10.85;;;;;;;;;;4951931;29;20082;-81
2021/08/07 03:02:21;;;;;;;18.50;10.80;;;;;;;;;;4935584;29;20091;-82
2021/08/07 03:04:49;;;;;;;19.30;10.18;;;;;;;;;;4951954;29;20584;-82
2021/08/07 03:07:16;;;;;;;19.65;9.88;;;;;;;;;;4936115;29;20863;-82
2021/08/07 03:09:44;;;;;;;19.05;10.60;;;;;;;;;;4944956;29;20135;-82
2021/08/07 03:12:12;;;;;;;21.00;11.10;;;;;;;;;;4917412;29;20147;-82
2021/08/07 03:14:43;;;;;;;23.92;10.88;;;;;;;;;;4931301;29;20078;-82
2021/08/07 03:17:10;;;;;;;21.48;11.13;;;;;;;;;;4951951;28;20065;-82
2021/08/07 03:19:37;;;;;;;31.08;12.57;;;;;;;;;;4949919;28;20142;-82
2021/08/07 03:22:08;;;;;;;29.73;12.98;;;;;;;;;;4946337;29;20059;-82
2021/08/07 03:24:35;;;;;;;29.50;13.55;;;;;;;;;;4933495;29;20079;-81
2021/08/07 03:27:08;;;;;;;34.03;12.48;;;;;;;;;;4932503;29;20126;-82
2021/08/07 03:29:35;;;;;;;19.40;11.45;;;;;;;;;;4935368;29;20134;-81
2021/08/07 03:32:03;;;;;;;28.77;11.32;;;;;;;;;;4931330;29;20124;-81
2021/08/07 03:34:30;;;;;;;28.52;12.05;;;;;;;;;;4942575;28;20481;-82
2021/08/07 03:36:57;;;;;;;22.33;11.15;;;;;;;;;;4934604;29;20156;-81
2021/08/07 03:39:25;;;;;;;21.58;11.30;;;;;;;;;;4950726;29;20130;-81
2021/08/07 03:41:52;;;;;;;31.00;12.93;;;;;;;;;;4950223;29;20075;-81
2021/08/07 03:44:19;;;;;;;30.65;13.77;;;;;;;;;;4938097;29;20168;-81
2021/08/07 03:46:49;;;;;;;24.92;14.38;;;;;;;;;;4940399;29;20087;-82
2021/08/07 03:49:16;;;;;;;33.83;15.65;;;;;;;;;;4932149;29;20083;-82
2021/08/07 03:51:43;;;;;;;45.40;17.77;;;;;;;;;;4931810;29;20135;-82
2021/08/07 03:54:10;;;;;;;59.63;19.05;;;;;;;;;;4939367;29;20078;-82
2021/08/07 03:56:37;;;;;;;99.15;21.27;;;;;;;;;;4938418;29;20643;-82
2021/08/07 03:59:05;;;;;;;106.30;22.55;;;;;;;;;;4938898;29;20835;-82
2021/08/07 04:01:33;;;;;;;70.22;21.08;;;;;;;;;;4930721;29;20158;-82
2021/08/07 04:04:00;;;;;;;54.17;20.10;;;;;;;;;;4945213;28;20457;-82
2021/08/07 04:06:27;;;;;;;74.50;23.25;;;;;;;;;;4932599;29;20102;-81
2021/08/07 04:08:58;;;;;;;86.90;24.92;;;;;;;;;;4935234;29;20493;-82
2021/08/07 04:11:25;;;;;;;86.72;24.80;;;;;;;;;;4955787;29;20054;-81
2021/08/07 04:13:52;;;;;;;68.00;24.75;;;;;;;;;;4942563;29;20051;-82
2021/08/07 04:16:19;;;;;;;76.55;25.13;;;;;;;;;;4938967;29;20055;-82
2021/08/07 04:18:47;;;;;;;78.53;26.88;;;;;;;;;;4924379;29;20059;-82
2021/08/07 04:21:17;;;;;;;85.60;25.48;;;;;;;;;;4919454;29;20050;-81
2021/08/07 04:23:44;;;;;;;88.85;26.65;;;;;;;;;;4937891;29;20126;-82
2021/08/07 04:26:12;;;;;;;81.65;26.23;;;;;;;;;;4953922;28;20082;-82
2021/08/07 04:28:39;;;;;;;72.55;25.45;;;;;;;;;;4950431;28;20090;-81
2021/08/07 04:31:06;;;;;;;70.80;24.50;;;;;;;;;;4952471;28;20062;-82
2021/08/07 04:33:34;;;;;;;71.60;23.98;;;;;;;;;;4934728;29;20060;-82
2021/08/07 04:36:02;;;;;;;86.80;25.40;;;;;;;;;;4944405;28;20074;-82
2021/08/07 04:38:33;;;;;;;75.25;24.35;;;;;;;;;;4952581;29;20057;-82
2021/08/07 04:41:01;;;;;;;68.47;23.88;;;;;;;;;;4934445;29;20142;-82
2021/08/07 04:43:31;;;;;;;67.03;23.52;;;;;;;;;;4944613;29;20501;-83
2021/08/07 04:45:58;;;;;;;64.88;23.27;;;;;;;;;;4936431;29;20048;-82
2021/08/07 04:48:26;;;;;;;65.53;21.95;;;;;;;;;;4942031;29;20051;-81
2021/08/07 04:50:53;;;;;;;44.97;19.60;;;;;;;;;;4953603;28;20070;-81
2021/08/07 04:53:20;;;;;;;49.03;21.08;;;;;;;;;;4952656;29;20841;-81
2021/08/07 04:55:47;;;;;;;44.90;19.80;;;;;;;;;;4951020;28;20086;-82
2021/08/07 04:58:14;;;;;;;44.92;19.77;;;;;;;;;;4942553;28;20144;-83
2021/08/07 05:00:42;;;;;;;47.47;19.83;;;;;;;;;;4941023;29;20153;-82
2021/08/07 05:03:09;;;;;;;44.70;20.20;;;;;;;;;;4954953;29;20110;-82
2021/08/07 05:05:36;;;;;;;47.53;20.73;;;;;;;;;;4953649;28;20509;-82
2021/08/07 05:08:04;;;;;;;47.08;20.48;;;;;;;;;;4936269;29;20122;-82
2021/08/07 05:10:33;;;;;;;44.67;19.42;;;;;;;;;;4946953;29;20074;-82
2021/08/07 05:13:00;;;;;;;45.83;20.23;;;;;;;;;;4919590;29;20158;-82
2021/08/07 05:15:27;;;;;;;43.83;19.25;;;;;;;;;;4918574;29;20047;-82
2021/08/07 05:17:55;;;;;;;39.50;18.33;;;;;;;;;;4934273;29;20086;-82
2021/08/07 05:20:23;;;;;;;42.05;18.70;;;;;;;;;;4925896;29;20055;-82
2021/08/07 05:22:50;;;;;;;38.85;18.08;;;;;;;;;;4950827;28;20138;-82
2021/08/07 05:25:17;;;;;;;37.63;17.77;;;;;;;;;;4932140;29;20130;-83
2021/08/07 05:27:44;;;;;;;35.42;18.05;;;;;;;;;;4947859;29;20456;-82
2021/08/07 05:30:12;;;;;;;36.60;17.67;;;;;;;;;;4957873;23;20165;-88
2021/08/07 05:32:41;;;;;;;35.38;17.05;;;;;;;;;;4948829;28;20604;-89
2021/08/07 05:35:09;;;;;;;45.05;18.30;;;;;;;;;;4935567;29;20043;-88
2021/08/07 05:37:40;;;;;;;37.17;16.83;;;;;;;;;;4953592;28;20047;-85
2021/08/07 05:40:08;;;;;;;32.47;15.82;;;;;;;;;;4954040;29;20851;-90
2021/08/07 05:42:35;;;;;;;32.58;15.95;;;;;;;;;;4932654;29;20130;-89
2021/08/07 05:45:02;;;;;;;30.40;15.60;;;;;;;;;;4947199;29;20126;-90
2021/08/07 05:47:30;;;;;;;33.90;17.35;;;;;;;;;;4937871;29;20047;-89
2021/08/07 05:49:57;;;;;;;31.48;15.93;;;;;;;;;;4936397;29;20756;-86
2021/08/07 05:52:28;;;;;;;32.20;17.02;;;;;;;;;;4935130;29;20058;-87
2021/08/07 05:54:57;;;;;;;38.70;18.35;;;;;;;;;;4945255;29;20082;-87
2021/08/07 05:57:26;;;;;;;33.92;16.65;;;;;;;;;;4940052;29;20839;-86
2021/08/07 05:59:53;;;;;;;35.80;16.55;;;;;;;;;;4935655;29;20468;-86
2021/08/07 06:02:25;;;;;;;41.45;17.92;;;;;;;;;;4935295;29;20135;-86
2021/08/07 06:04:52;;;;;;;31.75;17.23;;;;;;;;;;4953908;29;20051;-86
2021/08/07 06:07:21;;;;;;;32.17;17.90;;;;;;;;;;4927320;29;20051;-86
2021/08/07 06:09:48;;;;;;;35.97;17.80;;;;;;;;;;4951882;29;20251;-86
2021/08/07 06:12:17;;;;;;;32.40;17.65;;;;;;;;;;4953431;28;20183;-85
2021/08/07 06:14:44;;;;;;;31.80;16.60;;;;;;;;;;4949915;28;20055;-85
2021/08/07 06:17:13;;;;;;;30.75;16.48;;;;;;;;;;4949894;29;20532;-86
2021/08/07 06:19:41;;;;;;;33.00;16.27;;;;;;;;;;4936411;29;20087;-86
2021/08/07 06:22:12;;;;;;;37.45;17.35;;;;;;;;;;4932355;29;20505;-87
2021/08/07 06:24:39;;;;;;;35.90;18.20;;;;;;;;;;4931609;29;20071;-83
2021/08/07 06:27:06;;;;;;;25.83;15.73;;;;;;;;;;4935095;29;20126;-85
2021/08/07 06:29:33;;;;;;;28.13;15.77;;;;;;;;;;4952943;29;20581;-83
2021/08/07 06:32:01;;;;;;;27.85;16.13;;;;;;;;;;4952247;29;20074;-88
2021/08/07 06:34:28;;;;;;;24.58;14.77;;;;;;;;;;4925179;29;20134;-88
2021/08/07 06:36:55;;;;;;;28.58;15.10;;;;;;;;;;4944465;29;20455;-90
2021/08/07 06:39:22;;;;;;;26.08;15.30;;;;;;;;;;4934424;29;20627;-87
2021/08/07 06:41:49;;;;;;;32.00;15.32;;;;;;;;;;4934156;29;20122;-82
2021/08/07 06:44:16;;;;;;;21.35;13.82;;;;;;;;;;4949052;29;20479;-88
2021/08/07 06:46:43;;;;;;;26.25;14.35;;;;;;;;;;4945737;28;20055;-85
2021/08/07 06:49:11;;;;;;;23.20;13.18;;;;;;;;;;4948889;29;20051;-84
2021/08/07 06:51:38;;;;;;;25.38;13.73;;;;;;;;;;4953358;29;20134;-88
2021/08/07 06:54:05;;;;;;;19.67;12.90;;;;;;;;;;4936060;29;20083;-89
2021/08/07 06:56:32;;;;;;;25.65;13.20;;;;;;;;;;4952703;28;20130;-89
2021/08/07 06:59:00;;;;;;;21.77;11.73;;;;;;;;;;4952999;29;20051;-89
2021/08/07 07:01:27;;;;;;;19.50;12.57;;;;;;;;;;4953346;29;20105;-86
2021/08/07 07:03:57;;;;;;;19.35;11.95;;;;;;;;;;4937912;29;20106;-87
2021/08/07 07:06:24;;;;;;;20.83;11.88;;;;;;;;;;4936317;29;20449;-86
2021/08/07 07:08:52;;;;;;;20.65;12.88;;;;;;;;;;4936659;28;20061;-88
2021/08/07 07:11:19;;;;;;;18.35;11.18;;;;;;;;;;4951267;29;20130;-87
2021/08/07 07:13:48;;;;;;;22.52;13.00;;;;;;;;;;4953116;28;20051;-85
2021/08/07 07:16:17;;;;;;;17.63;10.80;;;;;;;;;;4937016;29;20070;-90
2021/08/07 07:18:45;;;;;;;20.90;11.32;;;;;;;;;;4939909;29;20099;-89
2021/08/07 07:21:13;;;;;;;19.20;11.27;;;;;;;;;;4936420;29;20047;-90
2021/08/07 07:23:40;;;;;;;17.23;11.48;;;;;;;;;;4953392;29;20770;-88
2021/08/07 07:26:07;;;;;;;18.13;11.23;;;;;;;;;;4937821;29;20079;-88
2021/08/07 07:28:40;;;;;;;18.60;11.05;;;;;;;;;;4956029;28;20087;-89
2021/08/07 07:31:07;;;;;;;18.95;11.38;;;;;;;;;;4934611;28;20487;-89
2021/08/07 07:33:38;;;;;;;21.42;12.68;;;;;;;;;;4941117;29;20051;-89
2021/08/07 07:36:05;;;;;;;19.42;13.43;;;;;;;;;;4940127;29;20534;-88
2021/08/07 07:38:35;;;;;;;19.33;12.88;;;;;;;;;;4942443;28;20476;-89
2021/08/07 07:41:02;;;;;;;18.13;13.50;;;;;;;;;;4950939;28;20130;-88
2021/08/07 07:43:30;;;;;;;15.88;12.48;;;;;;;;;;4956282;28;20141;-88
2021/08/07 07:45:58;;;;;;;19.02;12.38;;;;;;;;;;4958778;28;20047;-90
2021/08/07 07:48:30;;;;;;;24.23;13.65;;;;;;;;;;4954072;28;20184;-89
2021/08/07 07:50:59;;;;;;;18.98;13.60;;;;;;;;;;4941241;28;20066;-89
2021/08/07 07:53:31;;;;;;;18.52;12.50;;;;;;;;;;4963206;28;20051;-88
2021/08/07 07:55:59;;;;;;;19.73;13.13;;;;;;;;;;4944948;29;20047;-88
2021/08/07 07:58:28;;;;;;;18.27;13.43;;;;;;;;;;4959255;28;20082;-89
2021/08/07 08:00:56;;;;;;;21.05;13.50;;;;;;;;;;4941608;29;20079;-90
2021/08/07 08:03:24;;;;;;;18.90;13.98;;;;;;;;;;4953235;29;20055;-89
2021/08/07 08:05:51;;;;;;;17.98;12.85;;;;;;;;;;4941704;29;20086;-89
2021/08/07 08:08:22;;;;;;;13.82;11.05;;;;;;;;;;4942101;29;20764;-89
2021/08/07 08:10:49;;;;;;;14.13;9.88;;;;;;;;;;4942127;29;20133;-89
2021/08/07 08:13:20;;;;;;;15.15;10.77;;;;;;;;;;4958518;28;20051;-88
2021/08/07 08:15:48;;;;;;;13.18;10.32;;;;;;;;;;4959332;29;20055;-89
2021/08/07 08:18:15;;;;;;;12.82;9.73;;;;;;;;;;4942296;29;20055;-88
2021/08/07 08:20:43;;;;;;;15.13;10.05;;;;;;;;;;4942200;29;20051;-89
2021/08/07 08:23:11;;;;;;;16.10;11.75;;;;;;;;;;4941660;29;20131;-88
2021/08/07 08:25:38;;;;;;;16.15;12.13;;;;;;;;;;4958179;29;20126;-88
2021/08/07 08:28:06;;;;;;;17.30;11.95;;;;;;;;;;4941521;29;20051;-88
2021/08/07 08:30:33;;;;;;;25.13;10.35;;;;;;;;;;4961020;28;20079;-88
2021/08/07 08:33:01;;;;;;;13.75;10.25;;;;;;;;;;4958594;29;20051;-88
2021/08/07 08:35:28;;;;;;;12.70;9.07;;;;;;;;;;4941584;29;20079;-87
2021/08/07 08:37:56;;;;;;;13.57;9.38;;;;;;;;;;4957632;29;20740;-87
2021/08/07 08:40:29;;;;;;;14.63;9.27;;;;;;;;;;4955523;28;20701;-89
2021/08/07 08:42:56;;;;;;;13.38;9.38;;;;;;;;;;4955958;29;20082;-81
2021/08/07 08:45:24;;;;;;;12.65;7.15;;;;;;;;;;4951346;29;20056;-80
2021/08/07 08:47:51;;;;;;;10.75;7.13;;;;;;;;;;4950074;29;20139;-80
2021/08/07 08:50:22;;;;;;;11.95;7.18;;;;;;;;;;4938907;29;20111;-81
2021/08/07 08:52:50;;;;;;;11.25;7.53;;;;;;;;;;4950952;29;20145;-80
2021/08/07 08:55:18;;;;;;;12.57;7.30;;;;;;;;;;4931730;29;20086;-80
2021/08/07 08:57:45;;;;;;;8.65;6.38;;;;;;;;;;4924065;29;20134;-81
2021/08/07 09:00:13;;;;;;;12.05;6.15;;;;;;;;;;4947767;29;20134;-80
2021/08/07 09:02:41;;;;;;;10.38;6.03;;;;;;;;;;4938813;29;20126;-80
2021/08/07 09:05:10;;;;;;;9.77;5.90;;;;;;;;;;4946942;29;20059;-80
2021/08/07 09:07:37;;;;;;;18.27;6.68;;;;;;;;;;4934083;29;20083;-80
2021/08/07 09:10:05;;;;;;;7.20;5.97;;;;;;;;;;4916922;29;20119;-80
2021/08/07 09:12:53;;;;;;;11.70;6.40;;;;;;;;;;4933899;29;20167;-81
2021/08/07 09:15:37;;;;;;;8.73;5.78;;;;;;;;;;4931391;29;20881;-79
2021/08/07 09:18:11;;;;;;;9.98;6.43;;;;;;;;;;4914293;29;20074;-80
2021/08/07 09:20:39;;;;;;;7.70;5.40;;;;;;;;;;4948624;29;20074;-80
2021/08/07 09:23:06;;;;;;;10.07;6.03;;;;;;;;;;4932432;29;20142;-80
2021/08/07 09:25:34;;;;;;;7.40;5.78;;;;;;;;;;4930579;29;20094;-80
2021/08/07 09:28:01;;;;;;;8.77;5.20;;;;;;;;;;4936601;29;20572;-80
2021/08/07 09:30:30;;;;;;;6.15;5.13;;;;;;;;;;4950242;29;20142;-80
2021/08/07 09:33:08;;;;;;;5.80;4.75;;;;;;;;;;4933601;29;20047;-80
2021/08/07 09:35:37;;;;;;;10.00;4.45;;;;;;;;;;4950462;29;20552;-80
2021/08/07 09:38:14;;;;;;;7.65;4.50;;;;;;;;;;4951015;29;20086;-81
2021/08/07 09:40:43;;;;;;;11.23;5.32;;;;;;;;;;4950335;29;20138;-81
2021/08/07 09:43:10;;;;;;;6.68;4.95;;;;;;;;;;4949278;29;20130;-81
2021/08/07 09:45:37;;;;;;;9.57;4.90;;;;;;;;;;4951020;29;20145;-81
2021/08/07 09:48:06;;;;;;;6.70;4.75;;;;;;;;;;4949072;29;20066;-80
2021/08/07 09:50:35;;;;;;;7.65;3.63;;;;;;;;;;4940268;29;20110;-81
2021/08/07 09:53:03;;;;;;;7.30;3.50;;;;;;;;;;4930187;29;20087;-81
2021/08/07 09:55:31;;;;;;;4.80;3.83;;;;;;;;;;4936060;29;20055;-79
2021/08/07 09:58:01;;;;;;;5.75;3.80;;;;;;;;;;4948374;29;20351;-80
2021/08/07 10:00:49;;;;;;;8.50;3.80;;;;;;;;;;4950542;28;20054;-80
2021/08/07 10:03:17;;;;;;;9.82;3.30;;;;;;;;;;4945665;29;20051;-81
2021/08/07 10:05:46;;;;;;;4.10;2.88;;;;;;;;;;4933495;29;20094;-82
2021/08/07 10:08:14;;;;;;;7.03;3.10;;;;;;;;;;4934849;29;20122;-82
2021/08/07 10:10:42;;;;;;;2.85;2.60;;;;;;;;;;4953245;29;20113;-81
2021/08/07 10:13:11;;;;;;;10.30;3.60;;;;;;;;;;4919269;29;20079;-80
2021/08/07 10:15:40;;;;;;;10.05;4.38;;;;;;;;;;4911622;29;20075;-78
2021/08/07 10:18:08;;;;;;;17.92;11.68;;;;;;;;;;4911753;29;20091;-78
2021/08/07 10:20:37;;;;;;;11.10;4.68;;;;;;;;;;4939099;29;20065;-80
2021/08/07 10:23:04;;;;;;;13.40;4.93;;;;;;;;;;4942749;29;20146;-83
2021/08/07 10:25:33;;;;;;;6.68;2.95;;;;;;;;;;4952922;29;20058;-81
2021/08/07 10:28:02;;;;;;;6.57;3.90;;;;;;;;;;4932993;29;20074;-81
2021/08/07 10:30:33;;;;;;;8.20;5.43;;;;;;;;;;4933658;28;20071;-83
2021/08/07 10:33:02;;;;;;;8.20;4.57;;;;;;;;;;4949157;29;20057;-84
2021/08/07 10:35:30;;;;;;;6.45;3.78;;;;;;;;;;4935161;29;20098;-85
2021/08/07 10:38:02;;;;;;;4.85;3.13;;;;;;;;;;4952557;29;20083;-82
2021/08/07 10:40:30;;;;;;;5.60;2.38;;;;;;;;;;4934840;29;20137;-81
2021/08/07 10:42:57;;;;;;;5.47;2.35;;;;;;;;;;4948622;29;20047;-80
2021/08/07 10:45:24;;;;;;;4.63;2.30;;;;;;;;;;4950594;29;20138;-83
2021/08/07 10:47:52;;;;;;;7.60;2.10;;;;;;;;;;4930660;29;20051;-83
2021/08/07 10:50:25;;;;;;;4.63;2.25;;;;;;;;;;4950399;29;20166;-84
2021/08/07 10:52:53;;;;;;;8.90;2.22;;;;;;;;;;4952394;29;20082;-83
2021/08/07 10:55:39;;;;;;;3.65;2.17;;;;;;;;;;4951692;29;20081;-83
2021/08/07 10:58:26;;;;;;;3.83;2.15;;;;;;;;;;4950252;29;20086;-83
2021/08/07 11:00:53;;;;;;;8.52;3.53;;;;;;;;;;4945111;28;20527;-82
2021/08/07 11:03:21;;;;;;;15.93;8.05;;;;;;;;;;4929716;29;20043;-82
2021/08/07 11:05:53;;;;;;;4.95;3.03;;;;;;;;;;4949481;29;20396;-83
2021/08/07 11:08:20;;;;;;;7.45;2.88;;;;;;;;;;4934723;29;20632;-81
2021/08/07 11:10:48;;;;;;;5.15;2.00;;;;;;;;;;4951755;29;20575;-82
2021/08/07 11:13:26;;;;;;;4.63;2.33;;;;;;;;;;4934810;29;20141;-83
2021/08/07 11:16:12;;;;;;;6.00;2.78;;;;;;;;;;4934101;29;20524;-82
2021/08/07 11:18:39;;;;;;;2.90;1.80;;;;;;;;;;4950187;29;20054;-81
2021/08/07 11:21:06;;;;;;;4.47;1.73;;;;;;;;;;4947865;29;20083;-81
2021/08/07 11:23:37;;;;;;;5.88;2.72;;;;;;;;;;4950776;29;20069;-82
2021/08/07 11:26:05;;;;;;;4.25;2.65;;;;;;;;;;4941255;29;20114;-83
2021/08/07 11:28:55;;;;;;;6.53;2.60;;;;;;;;;;4939001;29;20106;-81
2021/08/07 11:31:25;;;;;;;3.45;1.98;;;;;;;;;;4937121;29;20546;-79
2021/08/07 11:34:12;;;;;;;17.38;5.60;;;;;;;;;;4948050;29;20051;-80
2021/08/07 11:36:59;;;;;;;3.17;2.00;;;;;;;;;;4948295;29;20047;-80
2021/08/07 11:39:47;;;;;;;5.20;2.53;;;;;;;;;;4947827;29;20101;-81
2021/08/07 11:42:34;;;;;;;5.35;2.05;;;;;;;;;;4941795;28;20795;-80
2021/08/07 11:45:02;;;;;;;7.70;2.00;;;;;;;;;;4956820;28;20130;-79
2021/08/07 11:47:29;;;;;;;5.03;1.92;;;;;;;;;;4949441;28;20690;-81
2021/08/07 11:50:04;;;;;;;6.30;2.50;;;;;;;;;;4933882;29;20138;-84
2021/08/07 11:52:34;;;;;;;;;;;;;;;;;;4945142;29;20094;-84
2021/08/07 11:55:03;;;;;;;5.35;2.10;;;;;;;;;;4954739;28;20497;-83
2021/08/07 11:57:34;;;;;;;6.05;2.20;;;;;;;;;;4946075;28;20098;-81
2021/08/07 12:00:19;;;;;;;2.47;1.90;;;;;;;;;;4950169;28;20178;-83
2021/08/07 12:02:56;;;;;;;3.97;1.88;;;;;;;;;;4949486;29;20107;-81
2021/08/07 12:05:24;;;;;;;6.47;2.25;;;;;;;;;;4941771;29;20470;-84
2021/08/07 12:08:21;;;;;;;5.80;1.80;;;;;;;;;;4929495;29;20671;-79
2021/08/07 12:10:48;;;;;;;6.35;2.17;;;;;;;;;;4914250;29;20127;-79
2021/08/07 12:13:22;;;;;;;3.88;1.85;;;;;;;;;;4937783;29;20055;-79
2021/08/07 12:15:51;;;;;;;3.22;2.13;;;;;;;;;;4949454;28;20479;-79
2021/08/07 12:18:18;;;;;;;7.13;1.95;;;;;;;;;;4938010;29;20062;-79
2021/08/07 12:20:46;;;;;;;4.95;2.00;;;;;;;;;;4939674;29;20130;-79
2021/08/07 12:23:14;;;;;;;4.10;2.08;;;;;;;;;;4948036;29;21013;-79
2021/08/07 12:25:41;;;;;;;7.07;1.80;;;;;;;;;;4929117;29;20070;-79
2021/08/07 12:28:08;;;;;;;9.38;2.30;;;;;;;;;;4931189;29;20082;-78
2021/08/07 12:30:36;;;;;;;7.85;1.80;;;;;;;;;;4932231;29;20138;-79
2021/08/07 12:33:13;;;;;;;4.55;1.65;;;;;;;;;;4949156;29;20079;-79
2021/08/07 12:35:41;;;;;;;1.83;1.70;;;;;;;;;;4940845;28;20091;-79
2021/08/07 12:38:15;;;;;;;4.53;1.75;;;;;;;;;;4932399;29;20546;-79
2021/08/07 12:40:43;;;;;;;7.75;2.00;;;;;;;;;;4925002;28;20154;-79
2021/08/07 12:43:11;;;;;;;4.28;1.70;;;;;;;;;;4934952;28;20121;-79
2021/08/07 12:45:38;;;;;;;3.42;1.60;;;;;;;;;;4932059;29;20741;-79
2021/08/07 12:48:05;;;;;;;2.65;1.60;;;;;;;;;;4931694;29;20130;-79
2021/08/07 12:50:33;;;;;;;4.40;1.67;;;;;;;;;;4937589;28;20134;-78
2021/08/07 12:53:01;;;;;;;2.38;2.17;;;;;;;;;;4932794;29;20134;-78
2021/08/07 12:55:30;;;;;;;2.90;1.45;;;;;;;;;;4945173;29;20052;-78
2021/08/07 12:58:19;;;;;;;2.83;1.40;;;;;;;;;;4938342;29;20059;-78
2021/08/07 13:00:47;;;;;;;6.70;1.70;;;;;;;;;;4919095;29;20055;-78
2021/08/07 13:03:14;;;;;;;33.90;4.82;;;;;;;;;;4948902;29;20054;-78
2021/08/07 13:05:42;;;;;;;8.02;2.17;;;;;;;;;;4948718;29;20047;-77
2021/08/07 13:08:29;;;;;;;33.25;3.25;;;;;;;;;;4931748;29;20142;-77
2021/08/07 13:11:08;;;;;;;3.85;1.92;;;;;;;;;;4929459;29;20506;-77
2021/08/07 13:13:37;;;;;;;2.80;1.60;;;;;;;;;;4938686;29;20824;-77
2021/08/07 13:16:04;;;;;;;3.03;1.67;;;;;;;;;;4933382;28;20074;-77
2021/08/07 13:18:31;;;;;;;3.70;1.48;;;;;;;;;;4923679;29;20052;-78
2021/08/07 13:20:58;;;;;;;3.08;1.40;;;;;;;;;;4928400;28;20130;-79
2021/08/07 13:23:36;;;;;;;8.35;1.58;;;;;;;;;;4927159;29;20083;-79
2021/08/07 13:26:05;;;;;;;5.00;1.75;;;;;;;;;;4948789;28;20249;-77
2021/08/07 13:28:33;;;;;;;5.47;1.50;;;;;;;;;;4935582;29;20043;-80
2021/08/07 13:31:00;;;;;;;2.35;1.40;;;;;;;;;;4936895;29;20135;-80
2021/08/07 13:33:29;;;;;;;2.88;1.52;;;;;;;;;;4952401;29;20146;-80
2021/08/07 13:35:57;;;;;;;2.17;1.30;;;;;;;;;;4949710;29;20078;-79
2021/08/07 13:38:25;;;;;;;2.45;1.25;;;;;;;;;;4930275;29;20094;-79
2021/08/07 13:41:03;;;;;;;2.00;1.20;;;;;;;;;;4941204;29;20114;-80
2021/08/07 13:43:32;;;;;;;4.93;1.50;;;;;;;;;;4950712;29;20055;-80
2021/08/07 13:45:59;;;;;;;3.25;1.33;;;;;;;;;;4934884;29;20138;-80
2021/08/07 13:48:27;;;;;;;1.45;1.02;;;;;;;;;;4951339;29;20059;-80
2021/08/07 13:50:54;;;;;;;4.07;1.30;;;;;;;;;;4933139;29;20051;-79
2021/08/07 13:53:22;;;;;;;2.63;1.25;;;;;;;;;;4916132;29;20478;-81
2021/08/07 13:55:49;;;;;;;2.45;0.90;;;;;;;;;;4916319;29;20051;-81
2021/08/07 13:58:17;;;;;;;3.33;0.88;;;;;;;;;;4944829;29;20075;-80
2021/08/07 14:00:44;;;;;;;2.17;1.15;;;;;;;;;;4937338;28;20786;-81
2021/08/07 14:03:14;;;;;;;5.72;1.25;;;;;;;;;;4951524;29;20051;-81
2021/08/07 14:05:41;;;;;;;5.13;1.10;;;;;;;;;;4952799;29;20115;-80
2021/08/07 14:08:09;;;;;;;1.85;1.30;;;;;;;;;;4948972;29;20078;-78
2021/08/07 14:10:37;;;;;;;4.18;1.10;;;;;;;;;;4931870;29;20085;-78
2021/08/07 14:13:04;;;;;;;1.45;1.10;;;;;;;;;;4946761;29;20532;-78
2021/08/07 14:15:32;;;;;;;1.83;1.27;;;;;;;;;;4947878;29;20484;-78
2021/08/07 14:18:03;;;;;;;6.03;2.00;;;;;;;;;;4947755;29;20105;-79
2021/08/07 14:20:31;;;;;;;4.72;1.10;;;;;;;;;;4936451;28;20074;-78
2021/08/07 14:22:59;;;;;;;6.45;1.10;;;;;;;;;;4947737;29;20688;-78
2021/08/07 14:25:27;;;;;;;5.45;1.50;;;;;;;;;;4948252;29;20074;-79
2021/08/07 14:27:54;;;;;;;4.03;1.30;;;;;;;;;;4947193;29;20086;-77
2021/08/07 14:30:22;;;;;;;4.32;1.40;;;;;;;;;;4946655;29;20047;-78
2021/08/07 14:32:50;;;;;;;3.10;1.30;;;;;;;;;;4927892;29;20126;-78
2021/08/07 14:35:17;;;;;;;2.65;1.20;;;;;;;;;;4929403;29;20130;-77
2021/08/07 14:37:45;;;;;;;5.38;1.50;;;;;;;;;;4946797;28;20146;-78
2021/08/07 14:40:15;;;;;;;6.00;1.42;;;;;;;;;;4946848;29;20235;-78